sensor_id;sensor_type;location;lat;lon;timestamp;pressure;altitude;pressure_sealevel;temperature;humidity
61035;BME280;46916;40.564;-7.958;2023-05-21T00:00:35;96796.75;;;17.82;37.95
61035;BME280;46916;40.564;-7.958;2023-05-21T00:02:36;96791.25;;;17.83;37.88
61035;BME280;46916;40.564;-7.958;2023-05-21T00:04:37;96790.44;;;17.83;37.42
61035;BME280;46916;40.564;-7.958;2023-05-21T00:06:40;96797.78;;;17.81;36.32
61035;BME280;46916;40.564;-7.958;2023-05-21T00:08:41;96799.78;;;17.79;36.16
61035;BME280;46916;40.564;-7.958;2023-05-21T00:10:42;96803.66;;;17.76;36.27
61035;BME280;46916;40.564;-7.958;2023-05-21T00:12:42;96795.22;;;17.73;35.75
61035;BME280;46916;40.564;-7.958;2023-05-21T00:14:43;96792.94;;;17.70;35.63
61035;BME280;46916;40.564;-7.958;2023-05-21T00:16:44;96794.78;;;17.69;35.41
61035;BME280;46916;40.564;-7.958;2023-05-21T00:18:46;96793.41;;;17.73;35.02
61035;BME280;46916;40.564;-7.958;2023-05-21T00:20:48;96797.06;;;17.72;35.02
61035;BME280;46916;40.564;-7.958;2023-05-21T00:22:49;96789.28;;;17.71;35.07
61035;BME280;46916;40.564;-7.958;2023-05-21T00:24:51;96795.06;;;17.74;34.81
61035;BME280;46916;40.564;-7.958;2023-05-21T00:26:51;96796.25;;;17.72;34.87
61035;BME280;46916;40.564;-7.958;2023-05-21T00:28:52;96804.38;;;17.70;34.84
61035;BME280;46916;40.564;-7.958;2023-05-21T00:30:52;96797.88;;;17.73;35.07
61035;BME280;46916;40.564;-7.958;2023-05-21T00:32:53;96795.22;;;17.73;35.08
61035;BME280;46916;40.564;-7.958;2023-05-21T00:34:54;96796.88;;;17.74;35.18
61035;BME280;46916;40.564;-7.958;2023-05-21T00:36:55;96798.53;;;17.75;35.17
61035;BME280;46916;40.564;-7.958;2023-05-21T00:38:57;96795.06;;;17.74;35.27
61035;BME280;46916;40.564;-7.958;2023-05-21T00:41:01;96793.06;;;17.76;35.35
61035;BME280;46916;40.564;-7.958;2023-05-21T00:43:02;96798.53;;;17.75;35.39
61035;BME280;46916;40.564;-7.958;2023-05-21T00:45:03;96795.59;;;17.70;35.42
61035;BME280;46916;40.564;-7.958;2023-05-21T00:47:04;96796.78;;;17.67;35.69
61035;BME280;46916;40.564;-7.958;2023-05-21T00:49:05;96797.56;;;17.61;35.80
61035;BME280;46916;40.564;-7.958;2023-05-21T00:51:06;96798.75;;;17.58;35.95
61035;BME280;46916;40.564;-7.958;2023-05-21T00:53:07;96797.50;;;17.54;35.87
61035;BME280;46916;40.564;-7.958;2023-05-21T00:55:12;96799.69;;;17.51;35.96
61035;BME280;46916;40.564;-7.958;2023-05-21T00:57:13;96797.25;;;17.49;35.99
61035;BME280;46916;40.564;-7.958;2023-05-21T00:59:15;96792.50;;;17.45;36.09
61035;BME280;46916;40.564;-7.958;2023-05-21T01:01:16;96801.47;;;17.44;36.27
61035;BME280;46916;40.564;-7.958;2023-05-21T01:03:17;96790.06;;;17.43;36.35
61035;BME280;46916;40.564;-7.958;2023-05-21T01:05:19;96789.63;;;17.40;36.30
61035;BME280;46916;40.564;-7.958;2023-05-21T01:07:21;96793.69;;;17.42;36.40
61035;BME280;46916;40.564;-7.958;2023-05-21T01:09:24;96795.09;;;17.38;36.55
61035;BME280;46916;40.564;-7.958;2023-05-21T01:11:46;96796.91;;;17.38;36.69
61035;BME280;46916;40.564;-7.958;2023-05-21T01:13:48;96780.22;;;17.37;36.72
61035;BME280;46916;40.564;-7.958;2023-05-21T01:15:49;96793.66;;;17.36;36.93
61035;BME280;46916;40.564;-7.958;2023-05-21T01:18:10;96787.53;;;17.35;37.21
61035;BME280;46916;40.564;-7.958;2023-05-21T01:20:11;96784.06;;;17.34;37.38
61035;BME280;46916;40.564;-7.958;2023-05-21T01:22:13;96788.53;;;17.34;37.54
61035;BME280;46916;40.564;-7.958;2023-05-21T01:24:14;96783.34;;;17.26;37.73
61035;BME280;46916;40.564;-7.958;2023-05-21T01:26:15;96784.38;;;17.25;38.07
61035;BME280;46916;40.564;-7.958;2023-05-21T01:28:15;96786.09;;;17.18;38.42
61035;BME280;46916;40.564;-7.958;2023-05-21T01:30:18;96787.03;;;17.10;38.55
61035;BME280;46916;40.564;-7.958;2023-05-21T01:32:52;96780.06;;;17.02;38.97
61035;BME280;46916;40.564;-7.958;2023-05-21T01:35:06;96766.66;;;16.89;39.20
61035;BME280;46916;40.564;-7.958;2023-05-21T01:37:13;96773.97;;;16.87;39.53
61035;BME280;46916;40.564;-7.958;2023-05-21T01:39:22;96768.44;;;16.82;39.63
61035;BME280;46916;40.564;-7.958;2023-05-21T01:41:26;96765.31;;;16.78;39.89
61035;BME280;46916;40.564;-7.958;2023-05-21T01:43:30;96770.41;;;16.80;40.03
61035;BME280;46916;40.564;-7.958;2023-05-21T01:45:32;96762.03;;;16.76;40.31
61035;BME280;46916;40.564;-7.958;2023-05-21T01:47:36;96770.16;;;16.75;40.31
61035;BME280;46916;40.564;-7.958;2023-05-21T01:49:37;96766.00;;;16.72;40.63
61035;BME280;46916;40.564;-7.958;2023-05-21T01:51:38;96770.50;;;16.72;40.71
61035;BME280;46916;40.564;-7.958;2023-05-21T01:53:39;96763.56;;;16.71;40.79
61035;BME280;46916;40.564;-7.958;2023-05-21T01:55:40;96759.38;;;16.76;40.88
61035;BME280;46916;40.564;-7.958;2023-05-21T01:57:41;96766.50;;;16.76;40.97
61035;BME280;46916;40.564;-7.958;2023-05-21T01:59:41;96759.03;;;16.79;41.35
61035;BME280;46916;40.564;-7.958;2023-05-21T02:01:43;96761.41;;;16.74;41.35
61035;BME280;46916;40.564;-7.958;2023-05-21T02:03:44;96766.50;;;16.76;41.71
61035;BME280;46916;40.564;-7.958;2023-05-21T02:05:44;96764.88;;;16.75;41.62
61035;BME280;46916;40.564;-7.958;2023-05-21T02:07:48;96761.56;;;16.73;41.83
61035;BME280;46916;40.564;-7.958;2023-05-21T02:09:49;96767.38;;;16.68;42.06
61035;BME280;46916;40.564;-7.958;2023-05-21T02:11:51;96767.13;;;16.63;42.48
61035;BME280;46916;40.564;-7.958;2023-05-21T02:13:51;96768.59;;;16.66;42.42
61035;BME280;46916;40.564;-7.958;2023-05-21T02:15:54;96769.50;;;16.73;42.31
61035;BME280;46916;40.564;-7.958;2023-05-21T02:17:55;96772.78;;;16.60;42.60
61035;BME280;46916;40.564;-7.958;2023-05-21T02:19:57;96778.16;;;16.67;42.75
61035;BME280;46916;40.564;-7.958;2023-05-21T02:22:06;96775.97;;;16.70;43.16
61035;BME280;46916;40.564;-7.958;2023-05-21T02:24:07;96769.22;;;16.68;42.98
61035;BME280;46916;40.564;-7.958;2023-05-21T02:26:07;96772.00;;;16.74;43.00
61035;BME280;46916;40.564;-7.958;2023-05-21T02:28:08;96771.25;;;16.66;42.84
61035;BME280;46916;40.564;-7.958;2023-05-21T02:30:10;96775.88;;;16.64;43.09
61035;BME280;46916;40.564;-7.958;2023-05-21T02:32:11;96780.09;;;16.58;43.01
61035;BME280;46916;40.564;-7.958;2023-05-21T02:34:11;96774.59;;;16.59;43.02
61035;BME280;46916;40.564;-7.958;2023-05-21T02:36:12;96780.44;;;16.55;43.24
61035;BME280;46916;40.564;-7.958;2023-05-21T02:38:14;96774.34;;;16.54;43.16
61035;BME280;46916;40.564;-7.958;2023-05-21T02:40:19;96782.44;;;16.53;43.35
61035;BME280;46916;40.564;-7.958;2023-05-21T02:42:22;96778.97;;;16.52;43.60
61035;BME280;46916;40.564;-7.958;2023-05-21T02:44:23;96788.00;;;16.43;43.72
61035;BME280;46916;40.564;-7.958;2023-05-21T02:46:23;96793.28;;;16.43;43.86
61035;BME280;46916;40.564;-7.958;2023-05-21T02:48:25;96791.81;;;16.41;44.43
61035;BME280;46916;40.564;-7.958;2023-05-21T02:50:26;96795.56;;;16.46;44.48
61035;BME280;46916;40.564;-7.958;2023-05-21T02:52:30;96792.81;;;16.40;44.45
61035;BME280;46916;40.564;-7.958;2023-05-21T02:54:31;96785.81;;;16.32;44.74
61035;BME280;46916;40.564;-7.958;2023-05-21T02:56:32;96792.44;;;16.28;44.61
61035;BME280;46916;40.564;-7.958;2023-05-21T02:58:32;96792.75;;;16.33;44.01
61035;BME280;46916;40.564;-7.958;2023-05-21T03:00:33;96793.91;;;16.30;44.16
61035;BME280;46916;40.564;-7.958;2023-05-21T03:02:34;96802.41;;;16.26;44.26
61035;BME280;46916;40.564;-7.958;2023-05-21T03:04:36;96802.19;;;16.27;44.47
61035;BME280;46916;40.564;-7.958;2023-05-21T03:06:38;96798.47;;;16.22;44.23
61035;BME280;46916;40.564;-7.958;2023-05-21T03:08:38;96805.41;;;16.23;44.29
61035;BME280;46916;40.564;-7.958;2023-05-21T03:10:39;96811.56;;;16.15;44.25
61035;BME280;46916;40.564;-7.958;2023-05-21T03:12:40;96799.44;;;16.06;44.45
61035;BME280;46916;40.564;-7.958;2023-05-21T03:14:40;96811.84;;;16.05;44.63
61035;BME280;46916;40.564;-7.958;2023-05-21T03:16:47;96809.19;;;16.05;44.83
61035;BME280;46916;40.564;-7.958;2023-05-21T03:18:48;96814.28;;;16.07;44.70
61035;BME280;46916;40.564;-7.958;2023-05-21T03:20:48;96803.66;;;16.15;44.25
61035;BME280;46916;40.564;-7.958;2023-05-21T03:22:49;96812.22;;;16.17;44.42
61035;BME280;46916;40.564;-7.958;2023-05-21T03:24:50;96811.50;;;16.08;44.55
61035;BME280;46916;40.564;-7.958;2023-05-21T03:26:52;96809.19;;;16.05;44.83
61035;BME280;46916;40.564;-7.958;2023-05-21T03:28:54;96801.63;;;16.02;44.99
61035;BME280;46916;40.564;-7.958;2023-05-21T03:30:55;96801.34;;;15.97;45.74
61035;BME280;46916;40.564;-7.958;2023-05-21T03:33:08;96808.81;;;15.94;46.64
61035;BME280;46916;40.564;-7.958;2023-05-21T03:35:10;96802.13;;;15.83;47.75
61035;BME280;46916;40.564;-7.958;2023-05-21T03:37:11;96801.66;;;15.79;47.86
61035;BME280;46916;40.564;-7.958;2023-05-21T03:39:12;96797.44;;;15.70;47.57
61035;BME280;46916;40.564;-7.958;2023-05-21T03:41:13;96796.84;;;15.60;48.49
61035;BME280;46916;40.564;-7.958;2023-05-21T03:43:16;96800.69;;;15.49;48.37
61035;BME280;46916;40.564;-7.958;2023-05-21T03:45:17;96797.06;;;15.50;48.35
61035;BME280;46916;40.564;-7.958;2023-05-21T03:47:20;96800.75;;;15.41;48.67
61035;BME280;46916;40.564;-7.958;2023-05-21T03:49:24;96802.56;;;15.41;48.64
61035;BME280;46916;40.564;-7.958;2023-05-21T03:51:27;96806.38;;;15.38;48.59
61035;BME280;46916;40.564;-7.958;2023-05-21T03:53:29;96804.44;;;15.32;49.15
61035;BME280;46916;40.564;-7.958;2023-05-21T03:55:30;96800.81;;;15.33;49.18
61035;BME280;46916;40.564;-7.958;2023-05-21T03:57:30;96805.28;;;15.32;49.12
61035;BME280;46916;40.564;-7.958;2023-05-21T03:59:32;96800.19;;;15.31;49.30
61035;BME280;46916;40.564;-7.958;2023-05-21T04:01:33;96796.53;;;15.32;49.11
61035;BME280;46916;40.564;-7.958;2023-05-21T04:03:35;96801.34;;;15.28;49.38
61035;BME280;46916;40.564;-7.958;2023-05-21T04:05:36;96796.94;;;15.21;49.52
61035;BME280;46916;40.564;-7.958;2023-05-21T04:07:37;96800.09;;;15.16;49.61
61035;BME280;46916;40.564;-7.958;2023-05-21T04:09:39;96797.41;;;15.24;49.17
61035;BME280;46916;40.564;-7.958;2023-05-21T04:11:39;96799.09;;;15.17;49.62
61035;BME280;46916;40.564;-7.958;2023-05-21T04:13:40;96799.03;;;15.25;49.52
61035;BME280;46916;40.564;-7.958;2023-05-21T04:15:40;96799.03;;;15.25;49.10
61035;BME280;46916;40.564;-7.958;2023-05-21T04:17:44;96792.59;;;15.28;49.30
61035;BME280;46916;40.564;-7.958;2023-05-21T04:19:46;96796.25;;;15.27;49.02
61035;BME280;46916;40.564;-7.958;2023-05-21T04:21:47;96799.66;;;15.35;48.96
61035;BME280;46916;40.564;-7.958;2023-05-21T04:23:48;96796.53;;;15.32;48.87
61035;BME280;46916;40.564;-7.958;2023-05-21T04:25:59;96802.44;;;15.34;48.30
61035;BME280;46916;40.564;-7.958;2023-05-21T04:28:03;96794.75;;;15.24;48.56
61035;BME280;46916;40.564;-7.958;2023-05-21T04:30:04;96788.44;;;15.10;48.92
61035;BME280;46916;40.564;-7.958;2023-05-21T04:32:08;96785.94;;;15.09;48.95
61035;BME280;46916;40.564;-7.958;2023-05-21T04:34:08;96793.03;;;15.08;49.19
61035;BME280;46916;40.564;-7.958;2023-05-21T04:36:09;96796.19;;;15.04;49.51
61035;BME280;46916;40.564;-7.958;2023-05-21T04:38:29;96803.44;;;15.02;49.95
61035;BME280;46916;40.564;-7.958;2023-05-21T04:40:30;96787.50;;;14.95;50.14
61035;BME280;46916;40.564;-7.958;2023-05-21T04:42:30;96793.38;;;15.05;51.65
61035;BME280;46916;40.564;-7.958;2023-05-21T04:44:32;96781.53;;;15.01;52.54
61035;BME280;46916;40.564;-7.958;2023-05-21T04:46:34;96796.38;;;15.02;51.29
61035;BME280;46916;40.564;-7.958;2023-05-21T04:48:35;96799.56;;;14.90;50.84
61035;BME280;46916;40.564;-7.958;2023-05-21T04:50:36;96796.88;;;14.98;50.26
61035;BME280;46916;40.564;-7.958;2023-05-21T04:52:39;96789.50;;;14.93;49.52
61035;BME280;46916;40.564;-7.958;2023-05-21T04:54:40;96783.91;;;14.88;49.70
61035;BME280;46916;40.564;-7.958;2023-05-21T04:56:41;96781.66;;;14.77;49.18
61035;BME280;46916;40.564;-7.958;2023-05-21T04:58:41;96796.03;;;14.74;49.35
61035;BME280;46916;40.564;-7.958;2023-05-21T05:00:42;96792.38;;;14.75;48.84
61035;BME280;46916;40.564;-7.958;2023-05-21T05:02:45;96822.34;;;14.82;48.22
61035;BME280;46916;40.564;-7.958;2023-05-21T05:04:46;96802.59;;;14.78;48.20
61035;BME280;46916;40.564;-7.958;2023-05-21T05:06:46;96810.84;;;14.75;47.83
61035;BME280;46916;40.564;-7.958;2023-05-21T05:08:48;96809.00;;;14.76;47.92
61035;BME280;46916;40.564;-7.958;2023-05-21T05:10:50;96811.69;;;14.68;47.79
61035;BME280;46916;40.564;-7.958;2023-05-21T05:12:50;96807.94;;;14.62;47.92
61035;BME280;46916;40.564;-7.958;2023-05-21T05:14:52;96804.09;;;14.65;47.72
61035;BME280;46916;40.564;-7.958;2023-05-21T05:16:52;96808.06;;;14.60;47.78
61035;BME280;46916;40.564;-7.958;2023-05-21T05:18:53;96805.28;;;14.62;47.86
61035;BME280;46916;40.564;-7.958;2023-05-21T05:20:55;96814.34;;;14.59;48.02
61035;BME280;46916;40.564;-7.958;2023-05-21T05:22:56;96809.41;;;14.56;48.12
61035;BME280;46916;40.564;-7.958;2023-05-21T05:24:56;96805.13;;;14.55;48.24
61035;BME280;46916;40.564;-7.958;2023-05-21T05:26:57;96796.22;;;14.56;48.24
61035;BME280;46916;40.564;-7.958;2023-05-21T05:29:16;96811.09;;;14.49;48.46
61035;BME280;46916;40.564;-7.958;2023-05-21T05:31:17;96811.09;;;14.49;48.69
61035;BME280;46916;40.564;-7.958;2023-05-21T05:33:18;96807.47;;;14.42;49.34
61035;BME280;46916;40.564;-7.958;2023-05-21T05:35:19;96813.22;;;14.46;49.82
61035;BME280;46916;40.564;-7.958;2023-05-21T05:37:19;96817.19;;;14.42;50.53
61035;BME280;46916;40.564;-7.958;2023-05-21T05:39:20;96829.53;;;14.33;51.04
61035;BME280;46916;40.564;-7.958;2023-05-21T05:41:21;96828.56;;;14.26;51.28
61035;BME280;46916;40.564;-7.958;2023-05-21T05:43:24;96819.34;;;14.30;51.66
61035;BME280;46916;40.564;-7.958;2023-05-21T05:45:25;96820.66;;;14.34;50.86
61035;BME280;46916;40.564;-7.958;2023-05-21T05:47:26;96809.31;;;14.25;50.81
61035;BME280;46916;40.564;-7.958;2023-05-21T05:49:28;96826.91;;;14.33;50.25
61035;BME280;46916;40.564;-7.958;2023-05-21T05:51:28;96818.66;;;14.28;50.24
61035;BME280;46916;40.564;-7.958;2023-05-21T05:53:29;96811.94;;;14.25;50.02
61035;BME280;46916;40.564;-7.958;2023-05-21T05:55:31;96813.59;;;14.26;50.59
61035;BME280;46916;40.564;-7.958;2023-05-21T05:57:32;96815.38;;;14.34;51.21
61035;BME280;46916;40.564;-7.958;2023-05-21T05:59:38;96814.56;;;14.33;52.12
61035;BME280;46916;40.564;-7.958;2023-05-21T06:01:39;96820.31;;;14.37;51.85
61035;BME280;46916;40.564;-7.958;2023-05-21T06:03:42;96828.25;;;14.29;51.18
61035;BME280;46916;40.564;-7.958;2023-05-21T06:05:46;96831.53;;;14.23;51.35
61035;BME280;46916;40.564;-7.958;2023-05-21T06:07:47;96833.84;;;14.26;51.05
61035;BME280;46916;40.564;-7.958;2023-05-21T06:09:47;96835.28;;;14.36;50.54
61035;BME280;46916;40.564;-7.958;2023-05-21T06:11:48;96825.59;;;14.29;49.61
61035;BME280;46916;40.564;-7.958;2023-05-21T06:13:49;96834.66;;;14.26;49.64
61035;BME280;46916;40.564;-7.958;2023-05-21T06:15:52;96830.19;;;14.27;49.54
61035;BME280;46916;40.564;-7.958;2023-05-21T06:17:52;96833.50;;;14.29;49.16
61035;BME280;46916;40.564;-7.958;2023-05-21T06:19:54;96837.59;;;14.23;48.75
61035;BME280;46916;40.564;-7.958;2023-05-21T06:21:55;96838.28;;;14.25;48.40
61035;BME280;46916;40.564;-7.958;2023-05-21T06:23:55;96834.47;;;14.20;48.66
61035;BME280;46916;40.564;-7.958;2023-05-21T06:25:56;96832.53;;;14.22;48.49
61035;BME280;46916;40.564;-7.958;2023-05-21T06:27:59;96836.78;;;14.23;48.28
61035;BME280;46916;40.564;-7.958;2023-05-21T06:30:02;96832.19;;;14.25;48.32
61035;BME280;46916;40.564;-7.958;2023-05-21T06:32:04;96829.38;;;14.26;48.01
61035;BME280;46916;40.564;-7.958;2023-05-21T06:34:05;96831.03;;;14.27;47.82
61035;BME280;46916;40.564;-7.958;2023-05-21T06:36:06;96822.47;;;14.33;47.87
61035;BME280;46916;40.564;-7.958;2023-05-21T06:38:07;96826.03;;;14.41;47.56
61035;BME280;46916;40.564;-7.958;2023-05-21T06:40:08;96829.03;;;14.46;47.61
61035;BME280;46916;40.564;-7.958;2023-05-21T06:42:10;96825.56;;;14.45;47.00
61035;BME280;46916;40.564;-7.958;2023-05-21T06:44:27;96831.97;;;14.43;46.92
61035;BME280;46916;40.564;-7.958;2023-05-21T06:46:37;96830.66;;;14.47;46.85
61035;BME280;46916;40.564;-7.958;2023-05-21T06:48:41;96819.63;;;14.43;46.81
61035;BME280;46916;40.564;-7.958;2023-05-21T06:50:42;96823.25;;;14.42;47.01
61035;BME280;46916;40.564;-7.958;2023-05-21T06:52:43;96830.84;;;14.45;46.99
61035;BME280;46916;40.564;-7.958;2023-05-21T06:54:43;96830.00;;;14.36;46.84
61035;BME280;46916;40.564;-7.958;2023-05-21T06:57:02;96823.59;;;14.39;47.09
61035;BME280;46916;40.564;-7.958;2023-05-21T06:59:05;96839.88;;;14.43;47.14
61035;BME280;46916;40.564;-7.958;2023-05-21T07:01:05;96828.34;;;14.44;47.08
61035;BME280;46916;40.564;-7.958;2023-05-21T07:03:06;96829.34;;;14.43;46.96
61035;BME280;46916;40.564;-7.958;2023-05-21T07:05:07;96825.06;;;14.42;47.20
61035;BME280;46916;40.564;-7.958;2023-05-21T07:07:08;96827.72;;;14.42;47.25
61035;BME280;46916;40.564;-7.958;2023-05-21T07:09:10;96834.63;;;14.43;47.22
61035;BME280;46916;40.564;-7.958;2023-05-21T07:11:12;96836.75;;;14.47;47.14
61035;BME280;46916;40.564;-7.958;2023-05-21T07:13:14;96839.72;;;14.52;47.08
61035;BME280;46916;40.564;-7.958;2023-05-21T07:15:16;96834.31;;;14.54;46.85
61035;BME280;46916;40.564;-7.958;2023-05-21T07:17:17;96853.56;;;14.54;46.93
61035;BME280;46916;40.564;-7.958;2023-05-21T07:19:18;96846.00;;;14.51;47.02
61035;BME280;46916;40.564;-7.958;2023-05-21T07:21:18;96837.25;;;14.51;47.10
61035;BME280;46916;40.564;-7.958;2023-05-21T07:23:21;96832.81;;;14.43;47.06
61035;BME280;46916;40.564;-7.958;2023-05-21T07:25:22;96847.28;;;14.47;47.19
61035;BME280;46916;40.564;-7.958;2023-05-21T07:27:23;96842.84;;;14.48;47.32
61035;BME280;46916;40.564;-7.958;2023-05-21T07:29:23;96844.47;;;14.57;47.19
61035;BME280;46916;40.564;-7.958;2023-05-21T07:31:25;96851.06;;;14.53;47.21
61035;BME280;46916;40.564;-7.958;2023-05-21T07:33:26;96839.38;;;14.55;47.09
61035;BME280;46916;40.564;-7.958;2023-05-21T07:35:27;96851.56;;;14.56;47.04
61035;BME280;46916;40.564;-7.958;2023-05-21T07:37:28;96847.63;;;14.52;47.12
61035;BME280;46916;40.564;-7.958;2023-05-21T07:39:30;96847.00;;;14.50;47.39
61035;BME280;46916;40.564;-7.958;2023-05-21T07:41:30;96860.16;;;14.58;47.45
61035;BME280;46916;40.564;-7.958;2023-05-21T07:43:35;96851.25;;;14.59;47.06
61035;BME280;46916;40.564;-7.958;2023-05-21T07:45:35;96842.22;;;14.54;47.33
61035;BME280;46916;40.564;-7.958;2023-05-21T07:47:38;96854.69;;;14.60;47.42
61035;BME280;46916;40.564;-7.958;2023-05-21T07:49:38;96852.84;;;14.69;47.37
61035;BME280;46916;40.564;-7.958;2023-05-21T07:51:40;96850.56;;;14.74;47.01
61035;BME280;46916;40.564;-7.958;2023-05-21T07:53:40;96853.22;;;14.66;47.47
61035;BME280;46916;40.564;-7.958;2023-05-21T07:55:45;96853.53;;;14.71;47.30
61035;BME280;46916;40.564;-7.958;2023-05-21T07:57:53;96855.34;;;14.70;47.18
61035;BME280;46916;40.564;-7.958;2023-05-21T07:59:59;96853.19;;;14.74;46.99
61035;BME280;46916;40.564;-7.958;2023-05-21T08:02:00;96858.25;;;14.83;46.86
61035;BME280;46916;40.564;-7.958;2023-05-21T08:04:19;96850.53;;;14.82;46.84
61035;BME280;46916;40.564;-7.958;2023-05-21T08:06:20;96863.72;;;14.82;47.09
61035;BME280;46916;40.564;-7.958;2023-05-21T08:08:24;96854.94;;;14.81;47.00
61035;BME280;46916;40.564;-7.958;2023-05-21T08:10:27;96863.38;;;14.77;47.32
61035;BME280;46916;40.564;-7.958;2023-05-21T08:12:28;96865.03;;;14.78;47.33
61035;BME280;46916;40.564;-7.958;2023-05-21T08:14:29;96863.22;;;14.78;47.55
61035;BME280;46916;40.564;-7.958;2023-05-21T08:16:30;96855.91;;;14.89;47.35
61035;BME280;46916;40.564;-7.958;2023-05-21T08:18:31;96858.41;;;14.90;47.45
61035;BME280;46916;40.564;-7.958;2023-05-21T08:20:31;96859.72;;;14.94;47.54
61035;BME280;46916;40.564;-7.958;2023-05-21T08:22:33;96860.97;;;15.06;47.25
61035;BME280;46916;40.564;-7.958;2023-05-21T08:24:33;96868.19;;;15.13;47.28
61035;BME280;46916;40.564;-7.958;2023-05-21T08:26:35;96857.78;;;15.19;46.99
61035;BME280;46916;40.564;-7.958;2023-05-21T08:28:39;96854.28;;;15.27;46.96
61035;BME280;46916;40.564;-7.958;2023-05-21T08:30:40;96856.47;;;15.46;46.15
61035;BME280;46916;40.564;-7.958;2023-05-21T08:32:41;96852.91;;;15.39;45.94
61035;BME280;46916;40.564;-7.958;2023-05-21T08:34:41;96844.78;;;15.41;46.14
61035;BME280;46916;40.564;-7.958;2023-05-21T08:36:59;96837.06;;;15.39;45.97
61035;BME280;46916;40.564;-7.958;2023-05-21T08:39:20;96845.63;;;15.41;46.32
61035;BME280;46916;40.564;-7.958;2023-05-21T08:41:21;96841.28;;;15.48;46.21
61035;BME280;46916;40.564;-7.958;2023-05-21T08:43:27;96844.22;;;15.53;46.00
61035;BME280;46916;40.564;-7.958;2023-05-21T08:45:33;96842.19;;;15.64;46.30
61035;BME280;46916;40.564;-7.958;2023-05-21T08:47:40;96839.25;;;15.81;45.04
61035;BME280;46916;40.564;-7.958;2023-05-21T08:49:42;96839.81;;;15.77;45.18
61035;BME280;46916;40.564;-7.958;2023-05-21T08:51:45;96836.88;;;15.72;45.66
61035;BME280;46916;40.564;-7.958;2023-05-21T08:53:46;96834.81;;;15.82;45.82
61035;BME280;46916;40.564;-7.958;2023-05-21T08:56:07;96830.81;;;15.86;45.92
61035;BME280;46916;40.564;-7.958;2023-05-21T08:58:17;96826.94;;;15.97;45.90
61035;BME280;46916;40.564;-7.958;2023-05-21T09:00:18;96825.94;;;15.98;45.30
61035;BME280;46916;40.564;-7.958;2023-05-21T09:02:21;96829.03;;;16.01;45.10
61035;BME280;46916;40.564;-7.958;2023-05-21T09:04:24;96837.50;;;15.97;45.23
61035;BME280;46916;40.564;-7.958;2023-05-21T09:06:45;96832.97;;;16.05;44.72
61035;BME280;46916;40.564;-7.958;2023-05-21T09:08:56;96825.19;;;16.04;44.73
61035;BME280;46916;40.564;-7.958;2023-05-21T09:11:10;96831.50;;;16.03;44.87
61035;BME280;46916;40.564;-7.958;2023-05-21T09:13:30;96826.06;;;16.04;44.91
61035;BME280;46916;40.564;-7.958;2023-05-21T09:15:32;96835.13;;;16.02;44.97
61035;BME280;46916;40.564;-7.958;2023-05-21T09:17:33;96827.59;;;16.14;44.96
61035;BME280;46916;40.564;-7.958;2023-05-21T09:22:13;96834.19;;;16.18;44.88
61035;BME280;46916;40.564;-7.958;2023-05-21T09:24:14;96830.19;;;16.22;44.94
61035;BME280;46916;40.564;-7.958;2023-05-21T09:26:17;96827.81;;;16.27;45.22
61035;BME280;46916;40.564;-7.958;2023-05-21T09:28:19;96828.09;;;16.32;45.00
61035;BME280;46916;40.564;-7.958;2023-05-21T09:30:20;96824.91;;;16.37;45.36
61035;BME280;46916;40.564;-7.958;2023-05-21T09:32:21;96828.94;;;16.47;45.15
61035;BME280;46916;40.564;-7.958;2023-05-21T09:34:23;96823.34;;;16.57;44.62
61035;BME280;46916;40.564;-7.958;2023-05-21T09:36:24;96827.94;;;16.63;44.70
61035;BME280;46916;40.564;-7.958;2023-05-21T09:38:27;96834.63;;;16.74;44.47
61035;BME280;46916;40.564;-7.958;2023-05-21T09:40:28;96820.38;;;16.90;43.80
61035;BME280;46916;40.564;-7.958;2023-05-21T09:42:29;96818.56;;;16.90;43.72
61035;BME280;46916;40.564;-7.958;2023-05-21T09:44:31;96823.38;;;17.01;43.17
61035;BME280;46916;40.564;-7.958;2023-05-21T09:46:39;96822.91;;;16.98;43.32
61035;BME280;46916;40.564;-7.958;2023-05-21T09:48:41;96823.81;;;17.05;43.45
61035;BME280;46916;40.564;-7.958;2023-05-21T09:50:47;96819.28;;;16.99;43.83
61035;BME280;46916;40.564;-7.958;2023-05-21T09:52:49;96822.56;;;17.01;43.73
61035;BME280;46916;40.564;-7.958;2023-05-21T09:54:52;96824.63;;;17.05;43.76
61035;BME280;46916;40.564;-7.958;2023-05-21T09:56:52;96831.09;;;17.18;43.28
61035;BME280;46916;40.564;-7.958;2023-05-21T09:58:57;96819.69;;;17.17;43.65
61035;BME280;46916;40.564;-7.958;2023-05-21T10:00:59;96820.50;;;17.18;43.01
61035;BME280;46916;40.564;-7.958;2023-05-21T10:03:00;96824.75;;;17.33;43.21
61035;BME280;46916;40.564;-7.958;2023-05-21T10:05:07;96829.56;;;17.45;42.70
61035;BME280;46916;40.564;-7.958;2023-05-21T10:07:09;96828.00;;;17.50;42.32
61035;BME280;46916;40.564;-7.958;2023-05-21T10:09:10;96822.09;;;17.48;42.23
61035;BME280;46916;40.564;-7.958;2023-05-21T10:11:11;96817.22;;;17.52;41.69
61035;BME280;46916;40.564;-7.958;2023-05-21T10:13:13;96818.78;;;17.46;42.34
61035;BME280;46916;40.564;-7.958;2023-05-21T10:15:21;96821.50;;;17.53;42.82
61035;BME280;46916;40.564;-7.958;2023-05-21T10:17:24;96814.78;;;17.72;41.80
61035;BME280;46916;40.564;-7.958;2023-05-21T10:19:26;96813.78;;;17.73;41.77
61035;BME280;46916;40.564;-7.958;2023-05-21T10:21:29;96811.03;;;17.81;41.48
61035;BME280;46916;40.564;-7.958;2023-05-21T10:23:35;96824.50;;;17.86;41.50
61035;BME280;46916;40.564;-7.958;2023-05-21T10:25:36;96815.38;;;17.89;41.25
61035;BME280;46916;40.564;-7.958;2023-05-21T10:27:37;96808.09;;;17.97;41.30
61035;BME280;46916;40.564;-7.958;2023-05-21T10:29:38;96813.63;;;18.02;40.83
61035;BME280;46916;40.564;-7.958;2023-05-21T10:31:42;96807.16;;;18.05;41.00
61035;BME280;46916;40.564;-7.958;2023-05-21T10:33:46;96805.78;;;18.16;40.72
61035;BME280;46916;40.564;-7.958;2023-05-21T10:35:48;96802.16;;;18.17;40.68
61035;BME280;46916;40.564;-7.958;2023-05-21T10:37:51;96809.97;;;18.25;40.65
61035;BME280;46916;40.564;-7.958;2023-05-21T10:39:53;96802.03;;;18.31;40.59
61035;BME280;46916;40.564;-7.958;2023-05-21T10:42:15;96802.84;;;18.32;40.26
61035;BME280;46916;40.564;-7.958;2023-05-21T11:00:14;96801.28;;;18.44;40.02